createdAt,value
2018-11-01T00:02:14.745Z,76.91
2018-11-01T00:04:45.989Z,76.79
2018-11-01T00:07:14.809Z,77.13
2018-11-01T00:09:44.737Z,76.91
2018-11-01T00:12:14.617Z,76.47
2018-11-01T00:14:44.664Z,76.19
2018-11-01T00:17:12.931Z,76.29
2018-11-01T00:19:40.594Z,75.67
2018-11-01T00:22:08.324Z,75.12
2018-11-01T00:24:36.064Z,74.77
2018-11-01T00:27:03.742Z,74.14
2018-11-01T00:29:31.414Z,73.93
2018-11-01T00:31:59.050Z,73.97
2018-11-01T00:34:26.726Z,73.23
2018-11-01T00:36:54.278Z,72.57
2018-11-01T00:39:21.804Z,72.12
2018-11-01T00:41:49.812Z,71.80
2018-11-01T00:44:17.340Z,71.81
2018-11-01T00:46:45.019Z,71.92
2018-11-01T00:49:13.087Z,71.81
2018-11-01T00:51:40.866Z,72.10
2018-11-01T00:54:08.918Z,72.17
2018-11-01T00:56:36.657Z,72.32
2018-11-01T00:59:04.678Z,72.04
2018-11-01T01:01:32.248Z,72.72
2018-11-01T01:03:59.872Z,72.47
2018-11-01T01:06:27.470Z,72.83
2018-11-01T01:08:55.074Z,73.11
2018-11-01T01:11:22.721Z,72.76
2018-11-01T01:13:50.240Z,73.19
2018-11-01T01:16:17.895Z,73.03
2018-11-01T01:18:45.528Z,73.18
2018-11-01T01:21:13.110Z,73.35
2018-11-01T01:23:40.683Z,72.96
2018-11-01T01:26:08.325Z,72.23
2018-11-01T01:28:35.909Z,72.27
2018-11-01T01:31:03.609Z,72.43
2018-11-01T01:33:31.354Z,72.84
2018-11-01T01:35:58.921Z,72.67
2018-11-01T01:38:26.482Z,72.59
2018-11-01T01:40:54.046Z,72.76
2018-11-01T01:43:21.604Z,72.57
2018-11-01T01:45:49.282Z,72.46
2018-11-01T01:48:16.993Z,72.32
2018-11-01T01:50:44.651Z,72.50
2018-11-01T01:53:12.215Z,72.49
2018-11-01T01:55:40.003Z,72.36
2018-11-01T01:58:07.524Z,72.16
2018-11-01T02:00:35.211Z,71.84
2018-11-01T02:03:02.728Z,71.79
2018-11-01T02:05:30.310Z,72.00
2018-11-01T02:07:57.893Z,72.14
2018-11-01T02:10:25.508Z,72.03
2018-11-01T02:12:53.372Z,71.93
2018-11-01T02:15:21.414Z,72.29
2018-11-01T02:17:49.020Z,72.49
2018-11-01T02:20:18.038Z,72.69
2018-11-01T02:22:46.208Z,72.99
2018-11-01T02:25:14.108Z,73.18
2018-11-01T02:27:47.377Z,73.44
2018-11-01T02:30:16.181Z,73.54
2018-11-01T02:32:44.461Z,73.65
2018-11-01T02:35:13.377Z,73.76
2018-11-01T02:37:41.224Z,73.87
2018-11-01T02:40:09.562Z,74.10
2018-11-01T02:42:37.335Z,74.13
2018-11-01T02:45:06.040Z,74.36
2018-11-01T02:47:33.550Z,74.77
2018-11-01T02:50:01.256Z,75.05
2018-11-01T02:52:29.133Z,75.05
2018-11-01T02:54:56.880Z,75.17
2018-11-01T02:57:24.584Z,75.15
2018-11-01T02:59:52.362Z,75.14
2018-11-01T03:02:20.049Z,75.11
2018-11-01T03:04:47.650Z,75.13
2018-11-01T03:07:15.648Z,74.93
2018-11-01T03:09:43.792Z,74.70
2018-11-01T03:12:11.438Z,74.38
2018-11-01T03:14:39.132Z,74.09
2018-11-01T03:17:07.049Z,73.87
2018-11-01T03:19:35.646Z,73.62
2018-11-01T03:22:03.333Z,73.50
2018-11-01T03:24:31.158Z,73.56
2018-11-01T03:26:58.739Z,73.81
2018-11-01T03:29:26.436Z,73.61
2018-11-01T03:31:54.537Z,73.62
2018-11-01T03:34:22.378Z,73.86
2018-11-01T03:36:50.130Z,73.72
2018-11-01T03:39:17.765Z,73.91
2018-11-01T03:41:45.289Z,74.15
2018-11-01T03:44:13.010Z,74.55
2018-11-01T03:46:40.553Z,74.94
2018-11-01T03:49:08.209Z,75.43
2018-11-01T03:51:36.030Z,75.88
2018-11-01T03:54:03.581Z,76.39
2018-11-01T03:56:31.181Z,76.51
2018-11-01T03:58:58.728Z,76.86
2018-11-01T04:01:26.424Z,77.24
2018-11-01T04:03:54.071Z,76.96
2018-11-01T04:06:21.798Z,76.55
2018-11-01T04:08:49.353Z,76.52
2018-11-01T04:11:16.845Z,76.76
2018-11-01T04:13:44.606Z,77.35
2018-11-01T04:16:12.186Z,77.94
2018-11-01T04:18:39.858Z,78.28
2018-11-01T04:21:07.428Z,78.37
2018-11-01T04:23:35.040Z,78.76
2018-11-01T04:26:02.571Z,78.83
2018-11-01T04:28:30.304Z,79.09
2018-11-01T04:30:57.849Z,78.73
2018-11-01T04:33:25.454Z,78.68
2018-11-01T04:35:52.986Z,78.63
2018-11-01T04:38:20.669Z,78.74
2018-11-01T04:40:48.403Z,78.99
2018-11-01T04:43:16.021Z,79.15
2018-11-01T04:45:43.541Z,79.45
2018-11-01T04:48:11.275Z,79.74
2018-11-01T04:50:38.804Z,79.41
2018-11-01T04:53:06.392Z,78.84
2018-11-01T04:55:34.003Z,78.71
2018-11-01T04:58:01.630Z,78.67
2018-11-01T05:00:29.376Z,78.87
2018-11-01T05:02:57.004Z,79.13
2018-11-01T05:05:24.614Z,79.18
2018-11-01T05:07:52.154Z,79.10
2018-11-01T05:10:19.856Z,79.24
2018-11-01T05:12:47.609Z,79.14
2018-11-01T05:15:15.409Z,79.18
2018-11-01T05:17:43.123Z,79.17
2018-11-01T05:20:11.932Z,79.32
2018-11-01T05:22:39.775Z,79.29
2018-11-01T05:25:08.232Z,79.01
2018-11-01T05:27:36.143Z,78.79
2018-11-01T05:30:04.690Z,79.01
2018-11-01T05:32:32.359Z,78.82
2018-11-01T05:34:59.934Z,79.12
2018-11-01T05:37:27.542Z,78.69
2018-11-01T05:39:55.165Z,78.57
2018-11-01T05:42:22.684Z,78.34
2018-11-01T05:44:50.323Z,78.40
2018-11-01T05:47:17.879Z,78.58
2018-11-01T05:49:45.463Z,78.86
2018-11-01T05:52:13.061Z,78.95
2018-11-01T05:54:41.483Z,78.98
2018-11-01T05:57:09.590Z,78.98
2018-11-01T05:59:37.123Z,79.12
2018-11-01T06:02:24.745Z,79.21
2018-11-01T06:04:52.508Z,79.08
2018-11-01T06:07:52.806Z,79.08
2018-11-01T06:10:20.425Z,79.36
2018-11-01T06:12:47.871Z,78.83
2018-11-01T06:15:15.459Z,78.93
2018-11-01T06:17:43.053Z,78.80
2018-11-01T06:20:11.113Z,78.44
2018-11-01T06:22:38.609Z,78.44
2018-11-01T06:25:07.226Z,78.03
2018-11-01T06:27:34.764Z,77.83
2018-11-01T06:30:02.206Z,77.67
2018-11-01T06:32:29.694Z,77.31
2018-11-01T06:35:00.622Z,77.16
2018-11-01T06:37:28.142Z,76.81
2018-11-01T06:39:55.735Z,76.56
2018-11-01T06:42:23.322Z,76.64
2018-11-01T06:44:50.937Z,76.77
2018-11-01T06:47:18.400Z,76.66
2018-11-01T06:49:45.909Z,76.67
2018-11-01T06:52:13.706Z,76.08
2018-11-01T06:54:41.283Z,75.60
2018-11-01T06:57:08.778Z,75.23
2018-11-01T06:59:36.398Z,74.86
2018-11-01T07:02:03.810Z,74.66
2018-11-01T07:04:31.262Z,74.36
2018-11-01T07:06:58.830Z,74.27
2018-11-01T07:09:26.416Z,74.15
2018-11-01T07:11:53.890Z,74.11
2018-11-01T07:14:21.510Z,73.94
2018-11-01T07:16:49.029Z,73.43
2018-11-01T07:19:16.595Z,73.17
2018-11-01T07:21:44.105Z,72.45
2018-11-01T07:24:11.865Z,72.05
2018-11-01T07:26:39.369Z,71.49
2018-11-01T07:29:06.882Z,71.49
2018-11-01T07:31:34.311Z,71.04
2018-11-01T07:34:01.803Z,71.15
2018-11-01T07:36:29.245Z,71.11
2018-11-01T07:38:56.767Z,70.88
2018-11-01T07:41:24.319Z,70.71
2018-11-01T07:43:51.912Z,70.31
2018-11-01T07:46:19.440Z,69.80
2018-11-01T07:48:47.026Z,69.42
2018-11-01T07:51:14.626Z,69.37
2018-11-01T07:53:42.272Z,69.02
2018-11-01T07:56:09.712Z,69.35
2018-11-01T07:58:37.264Z,69.63
2018-11-01T08:01:05.010Z,69.43
2018-11-01T08:03:32.445Z,69.11
2018-11-01T08:06:00.067Z,68.88
2018-11-01T08:08:27.586Z,68.79
2018-11-01T08:10:55.268Z,68.19
2018-11-01T08:13:22.675Z,67.94
2018-11-01T08:15:50.336Z,67.65
2018-11-01T08:18:17.782Z,67.19
2018-11-01T08:20:45.530Z,66.48
2018-11-01T08:23:13.046Z,66.29
2018-11-01T08:25:41.430Z,65.78
2018-11-01T08:28:09.062Z,65.33
2018-11-01T08:30:36.551Z,65.40
2018-11-01T08:33:04.105Z,65.88
2018-11-01T08:35:31.588Z,65.91
2018-11-01T08:37:59.110Z,65.85
2018-11-01T08:40:26.687Z,65.77
2018-11-01T08:42:54.109Z,65.49
2018-11-01T08:45:21.564Z,64.95
2018-11-01T08:47:49.193Z,65.15
2018-11-01T08:50:16.855Z,65.43
2018-11-01T08:52:44.706Z,65.11
2018-11-01T08:55:12.861Z,65.23
2018-11-01T08:57:41.605Z,65.60
2018-11-01T09:00:10.089Z,65.15
2018-11-01T09:02:37.784Z,64.69
2018-11-01T09:05:06.704Z,63.75
2018-11-01T09:07:34.812Z,63.49
2018-11-01T09:10:02.715Z,62.85
2018-11-01T09:12:30.340Z,62.84
2018-11-01T09:14:57.816Z,62.19
2018-11-01T09:17:25.372Z,61.91
2018-11-01T09:19:53.068Z,61.69
2018-11-01T09:22:20.521Z,61.35
2018-11-01T09:24:47.946Z,61.09
2018-11-01T09:27:15.496Z,60.36
2018-11-01T09:29:43.062Z,60.27
2018-11-01T09:32:10.833Z,59.84
2018-11-01T09:34:45.132Z,59.78
2018-11-01T09:37:12.577Z,60.29
2018-11-01T09:39:40.444Z,59.61
2018-11-01T09:42:07.989Z,60.33
2018-11-01T09:44:35.532Z,60.59
2018-11-01T09:47:03.560Z,60.41
2018-11-01T09:49:30.927Z,61.18
2018-11-01T09:51:58.481Z,61.29
2018-11-01T09:54:26.297Z,61.30
2018-11-01T09:56:53.881Z,61.55
2018-11-01T09:59:21.355Z,61.13
2018-11-01T10:01:49.145Z,60.96
2018-11-01T10:04:16.697Z,61.00
2018-11-01T10:06:44.176Z,60.84
2018-11-01T10:09:11.804Z,60.91
2018-11-01T10:11:39.377Z,60.00
2018-11-01T10:14:07.273Z,59.99
2018-11-01T10:16:35.654Z,60.08
2018-11-01T10:19:03.090Z,60.25
2018-11-01T10:21:30.845Z,59.87
2018-11-01T10:23:58.286Z,59.81
2018-11-01T10:26:25.909Z,60.37
2018-11-01T10:28:53.355Z,60.38
2018-11-01T10:31:20.798Z,60.23
2018-11-01T10:33:48.720Z,59.33
2018-11-01T10:36:16.249Z,59.58
2018-11-01T10:38:43.701Z,59.05
2018-11-01T10:41:11.314Z,59.21
2018-11-01T10:43:38.819Z,59.07
2018-11-01T10:46:06.258Z,58.97
2018-11-01T10:48:33.965Z,58.92
2018-11-01T10:51:01.695Z,58.81
2018-11-01T10:53:29.386Z,59.22
2018-11-01T10:55:56.936Z,58.37
2018-11-01T10:58:24.439Z,57.67
2018-11-01T11:00:57.769Z,58.68
2018-11-01T11:03:25.076Z,58.69
2018-11-01T11:05:52.516Z,57.68
2018-11-01T11:08:20.118Z,58.47
2018-11-01T11:10:47.692Z,57.72
2018-11-01T11:13:15.207Z,57.82
2018-11-01T11:15:42.719Z,57.31
2018-11-01T11:18:10.206Z,57.45
2018-11-01T11:20:38.291Z,56.96
2018-11-01T11:23:05.712Z,57.07
2018-11-01T11:25:33.269Z,57.09
2018-11-01T11:28:00.799Z,57.34
2018-11-01T11:30:28.773Z,57.34
2018-11-01T11:32:56.114Z,57.11
2018-11-01T11:35:23.710Z,57.20
2018-11-01T11:37:51.189Z,58.05
2018-11-01T11:40:18.779Z,57.38
2018-11-01T11:42:46.258Z,57.81
2018-11-01T11:45:13.734Z,58.75
2018-11-01T11:47:41.905Z,59.01
2018-11-01T11:50:11.007Z,59.17
2018-11-01T11:52:38.498Z,59.54
2018-11-01T11:55:07.653Z,59.43
2018-11-01T11:57:35.314Z,59.12
2018-11-01T12:00:03.097Z,59.24
2018-11-01T12:02:30.667Z,59.42
2018-11-01T12:04:58.313Z,60.00
2018-11-01T12:07:26.437Z,58.71
2018-11-01T12:09:53.879Z,58.75
2018-11-01T12:12:21.483Z,58.08
2018-11-01T12:14:49.084Z,58.64
2018-11-01T12:17:16.631Z,59.45
2018-11-01T12:19:44.136Z,59.94
2018-11-01T12:22:11.729Z,60.35
2018-11-01T12:24:39.118Z,60.66
2018-11-01T12:27:06.659Z,60.57
2018-11-01T12:29:34.467Z,60.87
2018-11-01T12:32:01.929Z,61.42
2018-11-01T12:34:29.377Z,61.62
2018-11-01T12:37:03.630Z,61.95
2018-11-01T12:39:31.324Z,60.40
2018-11-01T12:41:58.914Z,60.28
2018-11-01T12:44:26.412Z,60.19
2018-11-01T12:46:53.850Z,60.50
2018-11-01T12:49:21.348Z,60.88
2018-11-01T12:51:49.211Z,61.92
2018-11-01T12:54:16.774Z,61.93
2018-11-01T12:56:44.326Z,61.59
2018-11-01T12:59:11.806Z,61.20
2018-11-01T13:01:39.361Z,61.52
2018-11-01T13:04:06.798Z,60.71
2018-11-01T13:06:34.483Z,60.31
2018-11-01T13:09:02.007Z,59.70
2018-11-01T13:11:29.553Z,59.83
2018-11-01T13:13:56.998Z,59.03
2018-11-01T13:16:24.454Z,59.43
2018-11-01T13:18:51.952Z,60.13
2018-11-01T13:21:19.550Z,60.43
2018-11-01T13:23:47.026Z,60.90
2018-11-01T13:26:14.454Z,60.86
2018-11-01T13:28:41.906Z,61.35
2018-11-01T13:31:09.390Z,61.45
2018-11-01T13:33:36.815Z,60.58
2018-11-01T13:36:04.680Z,59.60
2018-11-01T13:38:32.285Z,59.77
2018-11-01T13:41:00.125Z,59.73
2018-11-01T13:43:27.459Z,60.18
2018-11-01T13:45:54.952Z,60.69
2018-11-01T13:48:22.572Z,60.70
2018-11-01T13:50:49.967Z,61.78
2018-11-01T13:53:17.447Z,62.82
2018-11-01T13:55:45.050Z,63.68
2018-11-01T13:58:12.620Z,63.98
2018-11-01T14:00:40.112Z,64.66
2018-11-01T14:03:07.546Z,65.35
2018-11-01T14:05:35.027Z,64.63
2018-11-01T14:08:02.416Z,64.74
2018-11-01T14:10:29.976Z,65.65
2018-11-01T14:12:57.572Z,65.97
2018-11-01T14:15:25.443Z,67.20
2018-11-01T14:17:52.397Z,66.82
2018-11-01T14:20:19.940Z,67.27
2018-11-01T14:22:47.374Z,67.79
2018-11-01T14:25:14.981Z,68.12
2018-11-01T14:27:42.744Z,68.54
2018-11-01T14:30:12.941Z,68.51
2018-11-01T14:32:40.536Z,68.82
2018-11-01T14:35:08.902Z,68.00
2018-11-01T14:37:36.560Z,67.27
2018-11-01T14:40:05.558Z,66.51
2018-11-01T14:42:33.510Z,66.15
2018-11-01T14:45:01.063Z,64.45
2018-11-01T14:47:28.541Z,63.46
2018-11-01T14:50:03.138Z,64.01
2018-11-01T14:52:30.898Z,63.32
2018-11-01T14:54:59.378Z,62.44
2018-11-01T14:57:27.773Z,62.60
2018-11-01T14:59:54.163Z,62.93
2018-11-01T15:02:21.438Z,63.68
2018-11-01T15:04:48.929Z,63.86
2018-11-01T15:07:16.394Z,64.82
2018-11-01T15:09:43.903Z,64.77
2018-11-01T15:12:11.476Z,64.53
2018-11-01T15:14:39.022Z,64.74
2018-11-01T15:17:06.495Z,65.14
2018-11-01T15:19:34.053Z,65.88
2018-11-01T15:22:01.631Z,66.96
2018-11-01T15:24:29.199Z,67.78
2018-11-01T15:26:56.743Z,68.69
2018-11-01T15:29:24.261Z,69.84
2018-11-01T15:31:51.729Z,70.13
2018-11-01T15:34:19.184Z,70.59
2018-11-01T15:36:46.743Z,70.92
2018-11-01T15:39:14.236Z,71.54
2018-11-01T15:41:41.858Z,72.47
2018-11-01T15:44:09.469Z,73.04
2018-11-01T15:46:37.228Z,73.21
2018-11-01T15:49:05.559Z,74.11
2018-11-01T15:51:33.108Z,74.20
2018-11-01T15:54:00.732Z,74.71
2018-11-01T15:56:28.373Z,75.22
2018-11-01T15:58:56.005Z,75.83
2018-11-01T16:01:23.683Z,76.13
2018-11-01T16:03:51.289Z,77.11
2018-11-01T16:06:18.994Z,77.26
2018-11-01T16:08:46.517Z,77.25
2018-11-01T16:11:14.422Z,77.56
2018-11-01T16:13:41.933Z,77.37
2018-11-01T16:16:09.449Z,77.64
2018-11-01T16:18:37.167Z,78.07
2018-11-01T16:21:04.891Z,78.43
2018-11-01T16:23:32.348Z,79.43
2018-11-01T16:25:59.840Z,80.07
2018-11-01T16:28:27.300Z,79.88
2018-11-01T16:30:54.856Z,79.89
2018-11-01T16:33:22.416Z,79.88
2018-11-01T16:35:49.962Z,80.32
2018-11-01T16:38:17.370Z,80.43
2018-11-01T16:40:44.886Z,80.50
2018-11-01T16:43:12.326Z,81.42
2018-11-01T16:45:39.885Z,81.22
2018-11-01T16:48:07.427Z,81.54
2018-11-01T16:50:35.026Z,82.10
2018-11-01T16:53:02.606Z,82.84
2018-11-01T16:55:30.198Z,82.96
2018-11-01T16:57:57.614Z,83.36
2018-11-01T17:00:25.244Z,83.20
2018-11-01T17:02:52.824Z,82.79
2018-11-01T17:05:20.287Z,82.85
2018-11-01T17:07:47.800Z,83.09
2018-11-01T17:10:15.442Z,83.01
2018-11-01T17:12:42.874Z,83.38
2018-11-01T17:15:12.116Z,83.80
2018-11-01T17:17:39.595Z,84.10
2018-11-01T17:20:07.099Z,84.18
2018-11-01T17:22:34.670Z,84.45
2018-11-01T17:25:02.379Z,84.60
2018-11-01T17:27:29.762Z,84.93
2018-11-01T17:29:57.704Z,85.01
2018-11-01T17:32:25.309Z,85.23
2018-11-01T17:34:52.774Z,85.27
2018-11-01T17:37:20.272Z,85.37
2018-11-01T17:39:47.754Z,85.57
2018-11-01T17:42:15.330Z,85.77
2018-11-01T17:44:42.771Z,85.79
2018-11-01T17:47:10.406Z,85.87
2018-11-01T17:49:37.978Z,86.06
2018-11-01T17:52:05.552Z,86.05
2018-11-01T17:54:33.212Z,86.37
2018-11-01T17:57:00.688Z,86.41
2018-11-01T17:59:28.205Z,86.75
2018-11-01T18:01:55.762Z,86.92
2018-11-01T18:04:23.314Z,87.02
2018-11-01T18:06:50.850Z,86.81
2018-11-01T18:09:18.378Z,87.08
2018-11-01T18:11:46.132Z,87.20
2018-11-01T18:14:13.712Z,87.32
2018-11-01T18:16:41.251Z,87.35
2018-11-01T18:19:08.768Z,87.45
2018-11-01T18:21:36.276Z,87.60
2018-11-01T18:24:04.957Z,87.90
2018-11-01T18:26:32.462Z,87.89
2018-11-01T18:29:00.036Z,88.09
2018-11-01T18:31:28.051Z,88.07
2018-11-01T18:33:55.810Z,88.15
2018-11-01T18:36:23.307Z,88.15
2018-11-01T18:38:51.034Z,88.25
2018-11-01T18:41:18.587Z,88.24
2018-11-01T18:43:46.025Z,88.55
2018-11-01T18:46:13.592Z,88.47
2018-11-01T18:48:41.027Z,88.64
2018-11-01T18:51:08.580Z,88.70
2018-11-01T18:53:36.155Z,88.94
2018-11-01T18:56:04.145Z,88.90
2018-11-01T18:58:31.765Z,89.00
2018-11-01T19:00:59.278Z,89.05
2018-11-01T19:03:29.812Z,89.22
2018-11-01T19:05:58.522Z,89.27
2018-11-01T19:08:26.277Z,89.29
2018-11-01T19:10:54.200Z,89.13
2018-11-01T19:13:22.235Z,89.26
2018-11-01T19:15:49.686Z,89.34
2018-11-01T19:18:17.292Z,89.32
2018-11-01T19:20:44.833Z,89.29
2018-11-01T19:23:12.410Z,89.29
2018-11-01T19:25:40.010Z,89.49
2018-11-01T19:28:07.734Z,89.63
2018-11-01T19:30:35.267Z,89.58
2018-11-01T19:33:02.809Z,89.59
2018-11-01T19:35:30.202Z,89.40
2018-11-01T19:37:57.677Z,89.41
2018-11-01T19:40:25.198Z,89.43
2018-11-01T19:42:52.610Z,89.26
2018-11-01T19:45:20.115Z,89.36
2018-11-01T19:47:47.625Z,89.19
2018-11-01T19:50:15.802Z,88.90
2018-11-01T19:52:43.473Z,88.94
2018-11-01T19:55:11.260Z,88.80
2018-11-01T19:57:38.867Z,88.75
2018-11-01T20:00:08.957Z,88.52
2018-11-01T20:02:36.510Z,88.43
2018-11-01T20:05:04.841Z,88.36
2018-11-01T20:07:32.497Z,88.41
2018-11-01T20:10:00.045Z,88.10
2018-11-01T20:12:27.616Z,87.70
2018-11-01T20:14:55.374Z,87.47
2018-11-01T20:17:22.792Z,87.57
2018-11-01T20:19:50.326Z,87.21
2018-11-01T20:22:17.971Z,87.26
2018-11-01T20:24:45.593Z,87.18
2018-11-01T20:27:13.083Z,87.15
2018-11-01T20:29:40.644Z,86.85
2018-11-01T20:32:08.125Z,86.75
2018-11-01T20:34:35.689Z,86.40
2018-11-01T20:37:03.305Z,86.09
2018-11-01T20:39:30.730Z,85.67
2018-11-01T20:41:58.237Z,85.49
2018-11-01T20:44:25.741Z,85.26
2018-11-01T20:46:53.341Z,85.09
2018-11-01T20:49:20.962Z,85.16
2018-11-01T20:51:48.887Z,84.87
2018-11-01T20:54:16.376Z,84.42
2018-11-01T20:56:43.828Z,84.44
2018-11-01T20:59:11.403Z,84.25
2018-11-01T21:01:38.908Z,84.26
2018-11-01T21:04:06.454Z,84.10
2018-11-01T21:06:34.191Z,83.95
2018-11-01T21:09:01.720Z,83.45
2018-11-01T21:11:29.402Z,83.65
2018-11-01T21:13:56.665Z,83.62
2018-11-01T21:16:24.167Z,83.73
2018-11-01T21:18:51.689Z,83.98
2018-11-01T21:21:19.463Z,84.21
2018-11-01T21:23:47.293Z,84.13
2018-11-01T21:26:14.775Z,84.04
2018-11-01T21:28:42.335Z,83.97
2018-11-01T21:31:09.868Z,83.51
2018-11-01T21:33:37.482Z,83.50
2018-11-01T21:36:05.181Z,82.90
2018-11-01T21:38:32.529Z,82.96
2018-11-01T21:41:00.064Z,82.76
2018-11-01T21:43:27.643Z,82.83
2018-11-01T21:45:55.153Z,82.67
2018-11-01T21:48:22.765Z,82.66
2018-11-01T21:50:50.290Z,82.28
2018-11-01T21:53:17.964Z,82.25
2018-11-01T21:55:45.525Z,81.68
2018-11-01T21:58:13.123Z,81.22
2018-11-01T22:00:40.669Z,81.44
2018-11-01T22:03:08.191Z,80.88
2018-11-01T22:05:35.763Z,80.98
2018-11-01T22:08:03.287Z,80.91
2018-11-01T22:10:30.801Z,80.60
2018-11-01T22:12:58.308Z,80.73
2018-11-01T22:15:25.795Z,80.53
2018-11-01T22:17:53.237Z,80.53
2018-11-01T22:20:20.771Z,80.53
2018-11-01T22:22:48.371Z,80.64
2018-11-01T22:25:16.047Z,81.12
2018-11-01T22:27:50.161Z,81.10
2018-11-01T22:30:17.714Z,81.50
2018-11-01T22:32:45.268Z,81.86
2018-11-01T22:35:12.961Z,82.25
2018-11-01T22:37:41.500Z,82.65
2018-11-01T22:40:09.060Z,82.71
2018-11-01T22:42:36.853Z,82.60
2018-11-01T22:45:06.243Z,82.34
2018-11-01T22:47:33.828Z,82.39
2018-11-01T22:50:01.334Z,82.09
2018-11-01T22:52:29.033Z,81.93
2018-11-01T22:54:56.714Z,81.51
2018-11-01T22:57:24.270Z,81.80
2018-11-01T22:59:51.740Z,82.12
2018-11-01T23:02:19.464Z,82.75
2018-11-01T23:04:47.046Z,83.06
2018-11-01T23:07:14.676Z,83.48
2018-11-01T23:09:42.146Z,83.74
2018-11-01T23:12:09.698Z,84.09
2018-11-01T23:14:37.291Z,84.63
2018-11-01T23:17:04.982Z,85.06
2018-11-01T23:19:32.467Z,85.64
2018-11-01T23:21:59.939Z,85.63
2018-11-01T23:24:27.449Z,86.07
2018-11-01T23:26:55.179Z,86.05
2018-11-01T23:29:22.719Z,86.68
2018-11-01T23:31:50.463Z,86.94
2018-11-01T23:34:18.062Z,87.25
2018-11-01T23:36:51.137Z,87.53
2018-11-01T23:39:30.219Z,87.87
2018-11-01T23:42:09.475Z,88.09
2018-11-01T23:44:48.429Z,88.19
2018-11-01T23:47:27.702Z,88.11
2018-11-01T23:50:03.549Z,88.23
2018-11-01T23:52:38.851Z,88.44
2018-11-01T23:55:06.400Z,87.91
2018-11-01T23:57:34.078Z,87.92
